createdAt,value
2022-10-18T00:01:53.663Z,74.67
2022-10-18T00:04:43.692Z,74.24
2022-10-18T00:07:33.581Z,74.16
2022-10-18T00:10:25.077Z,73.55
2022-10-18T00:13:14.673Z,72.12
2022-10-18T00:16:06.685Z,71.44
2022-10-18T00:18:56.241Z,70.69
2022-10-18T00:21:46.115Z,70.92
2022-10-18T00:24:35.611Z,68.71
2022-10-18T00:31:45.358Z,66.97
2022-10-18T00:34:35.311Z,66.55
2022-10-18T00:37:25.400Z,66.14
2022-10-18T00:40:17.766Z,65.32
2022-10-18T00:43:07.306Z,64.57
2022-10-18T00:45:57.314Z,64.13
2022-10-18T00:48:46.861Z,63.64
2022-10-18T00:51:46.022Z,63.18
2022-10-18T00:54:39.665Z,62.12
2022-10-18T00:57:29.884Z,62.73
2022-10-18T01:00:20.368Z,63.07
2022-10-18T01:03:10.917Z,63.58
2022-10-18T01:06:03.569Z,61.82
2022-10-18T01:09:15.472Z,62.34
2022-10-18T01:12:18.875Z,62.68
2022-10-18T01:15:30.817Z,62.91
2022-10-18T01:18:20.493Z,62.30
2022-10-18T01:21:16.501Z,61.59
2022-10-18T01:24:38.585Z,60.99
2022-10-18T01:27:34.208Z,60.37
2022-10-18T01:30:41.806Z,60.37
2022-10-18T01:33:39.247Z,59.96
2022-10-18T01:36:31.727Z,60.30
2022-10-18T01:39:28.825Z,60.10
2022-10-18T01:42:21.426Z,59.00
2022-10-18T01:45:12.368Z,59.33
2022-10-18T01:48:02.803Z,59.68
2022-10-18T01:50:55.363Z,59.53
2022-10-18T01:53:45.699Z,57.77
2022-10-18T01:56:56.032Z,57.53
2022-10-18T02:00:00.367Z,56.22
2022-10-18T02:02:53.149Z,56.78
2022-10-18T02:05:48.060Z,55.92
2022-10-18T02:08:50.612Z,55.82
2022-10-18T02:11:42.018Z,55.56
2022-10-18T02:14:32.565Z,56.41
2022-10-18T02:17:22.747Z,57.07
2022-10-18T02:20:13.642Z,57.13
2022-10-18T02:23:03.863Z,56.15
2022-10-18T02:25:54.540Z,56.00
2022-10-18T02:28:44.779Z,56.28
2022-10-18T02:31:57.251Z,56.13
2022-10-18T02:35:11.459Z,56.39
2022-10-18T02:38:04.605Z,56.27
2022-10-18T02:40:57.218Z,53.96
2022-10-18T02:43:47.173Z,53.24
2022-10-18T02:46:37.304Z,54.17
2022-10-18T02:49:27.246Z,53.40
2022-10-18T02:52:16.412Z,53.79
2022-10-18T02:55:07.513Z,55.94
2022-10-18T02:57:56.770Z,56.76
2022-10-18T03:00:46.359Z,57.13
2022-10-18T03:03:35.354Z,57.13
2022-10-18T03:06:25.330Z,55.17
2022-10-18T03:09:15.152Z,55.70
2022-10-18T03:12:04.547Z,54.86
2022-10-18T03:14:54.587Z,55.00
2022-10-18T03:17:44.702Z,55.35
2022-10-18T03:20:34.789Z,55.65
2022-10-18T03:23:24.912Z,55.87
2022-10-18T03:26:14.742Z,56.42
2022-10-18T03:29:05.148Z,56.08
2022-10-18T03:32:03.027Z,57.10
2022-10-18T03:34:53.488Z,56.90
2022-10-18T03:37:43.551Z,57.34
2022-10-18T03:40:33.352Z,56.64
2022-10-18T03:43:24.560Z,55.90
2022-10-18T03:46:13.698Z,56.49
2022-10-18T03:49:04.598Z,56.80
2022-10-18T03:51:54.217Z,56.72
2022-10-18T03:54:45.916Z,55.79
2022-10-18T03:57:35.293Z,55.64
2022-10-18T04:00:25.468Z,54.33
2022-10-18T04:03:15.334Z,54.41
2022-10-18T04:06:04.947Z,54.14
2022-10-18T04:08:56.722Z,54.50
2022-10-18T04:11:46.768Z,54.65
2022-10-18T04:14:36.928Z,54.71
2022-10-18T04:17:26.496Z,54.93
2022-10-18T04:20:16.678Z,54.90
2022-10-18T04:23:08.025Z,54.80
2022-10-18T04:25:57.705Z,54.46
2022-10-18T04:28:47.396Z,54.14
2022-10-18T04:31:36.911Z,54.69
2022-10-18T04:34:26.817Z,55.00
2022-10-18T04:37:16.578Z,55.36
2022-10-18T04:40:06.809Z,55.32
2022-10-18T04:42:57.147Z,54.88
2022-10-18T04:45:49.019Z,54.50
2022-10-18T04:48:38.805Z,55.04
2022-10-18T04:51:28.435Z,54.44
2022-10-18T04:54:18.084Z,53.90
2022-10-18T04:57:08.099Z,53.10
2022-10-18T04:59:57.961Z,52.28
2022-10-18T05:03:02.436Z,52.28
2022-10-18T05:06:06.739Z,52.29
2022-10-18T05:08:56.572Z,52.81
2022-10-18T05:11:46.487Z,52.51
2022-10-18T05:14:36.332Z,53.66
2022-10-18T05:17:25.616Z,52.96
2022-10-18T05:23:11.719Z,52.94
2022-10-18T05:26:07.537Z,52.53
2022-10-18T05:29:00.511Z,53.00
2022-10-18T05:31:50.648Z,54.01
2022-10-18T05:34:40.550Z,55.21
2022-10-18T05:37:29.853Z,55.42
2022-10-18T05:40:20.083Z,56.33
2022-10-18T05:43:10.546Z,55.73
2022-10-18T05:46:00.503Z,56.46
2022-10-18T05:48:59.291Z,56.15
2022-10-18T05:51:49.163Z,55.67
2022-10-18T05:54:38.857Z,56.23
2022-10-18T05:57:28.448Z,56.03
2022-10-18T06:00:19.131Z,55.77
2022-10-18T06:03:08.836Z,56.34
2022-10-18T06:06:07.709Z,56.14
2022-10-18T06:08:56.958Z,56.35
2022-10-18T06:11:46.748Z,56.80
2022-10-18T06:14:36.860Z,57.63
2022-10-18T06:17:28.973Z,57.59
2022-10-18T06:20:22.487Z,57.08
2022-10-18T06:23:12.036Z,56.57
2022-10-18T06:26:06.431Z,56.36
2022-10-18T06:28:56.263Z,55.98
2022-10-18T06:31:45.755Z,56.26
2022-10-18T06:34:35.578Z,56.59
2022-10-18T06:37:25.408Z,56.70
2022-10-18T06:40:14.925Z,57.03
2022-10-18T06:43:20.466Z,57.02
2022-10-18T06:46:14.274Z,56.47
2022-10-18T06:49:03.959Z,55.99
2022-10-18T06:51:55.114Z,56.77
2022-10-18T06:54:45.520Z,55.99
2022-10-18T06:57:35.524Z,55.03
2022-10-18T07:00:24.772Z,55.90
2022-10-18T07:03:14.512Z,56.79
2022-10-18T07:06:07.570Z,56.49
2022-10-18T07:09:01.166Z,57.16
2022-10-18T07:11:52.777Z,57.73
2022-10-18T07:14:42.388Z,57.86
2022-10-18T07:17:32.667Z,58.55
2022-10-18T07:20:22.327Z,58.36
2022-10-18T07:23:12.963Z,57.75
2022-10-18T07:26:03.339Z,58.19
2022-10-18T07:28:56.464Z,58.26
2022-10-18T07:31:46.803Z,58.36
2022-10-18T07:34:36.444Z,57.68
2022-10-18T07:37:30.238Z,57.19
2022-10-18T07:40:20.842Z,57.82
2022-10-18T07:43:12.250Z,57.93
2022-10-18T07:46:03.803Z,58.05
2022-10-18T07:48:53.639Z,57.68
2022-10-18T07:51:42.991Z,58.48
2022-10-18T07:54:32.412Z,58.82
2022-10-18T07:57:25.964Z,58.64
2022-10-18T08:00:15.877Z,59.12
2022-10-18T08:03:06.247Z,59.07
2022-10-18T08:05:59.049Z,59.32
2022-10-18T08:08:49.079Z,59.46
2022-10-18T08:11:38.825Z,59.55
2022-10-18T08:14:28.310Z,60.09
2022-10-18T08:17:17.669Z,60.50
2022-10-18T08:20:19.017Z,60.91
2022-10-18T08:23:17.044Z,60.84
2022-10-18T08:26:08.534Z,60.98
2022-10-18T08:29:17.551Z,61.23
2022-10-18T08:32:11.806Z,61.57
2022-10-18T08:35:04.267Z,61.97
2022-10-18T08:37:56.928Z,62.70
2022-10-18T08:40:46.874Z,63.18
2022-10-18T08:44:17.590Z,63.48
2022-10-18T08:47:12.932Z,62.61
2022-10-18T08:50:23.358Z,63.07
2022-10-18T08:53:21.625Z,62.74
2022-10-18T08:56:17.244Z,62.74
2022-10-18T08:59:12.220Z,62.73
2022-10-18T09:02:36.869Z,63.28
2022-10-18T09:06:02.874Z,63.27
2022-10-18T09:09:32.968Z,63.46
2022-10-18T09:12:45.442Z,63.15
2022-10-18T09:15:57.126Z,64.15
2022-10-18T09:19:08.244Z,63.90
2022-10-18T09:22:05.010Z,63.74
2022-10-18T09:25:13.837Z,63.68
2022-10-18T09:28:18.910Z,63.58
2022-10-18T09:31:32.556Z,64.09
2022-10-18T09:34:43.774Z,64.49
2022-10-18T09:37:37.787Z,64.74
2022-10-18T09:40:29.679Z,64.65
2022-10-18T09:43:26.458Z,65.01
2022-10-18T09:46:17.842Z,65.19
2022-10-18T09:49:54.850Z,65.41
2022-10-18T09:53:27.776Z,66.00
2022-10-18T09:56:18.858Z,66.11
2022-10-18T09:59:21.409Z,66.15
2022-10-18T10:02:25.816Z,65.79
2022-10-18T10:05:16.415Z,65.71
2022-10-18T10:08:09.723Z,65.96
2022-10-18T10:10:59.572Z,65.94
2022-10-18T10:13:50.632Z,66.04
2022-10-18T10:16:54.408Z,65.98
2022-10-18T10:20:28.857Z,66.48
2022-10-18T10:23:30.689Z,66.44
2022-10-18T10:26:30.864Z,66.39
2022-10-18T10:30:07.358Z,66.50
2022-10-18T10:32:58.463Z,66.50
2022-10-18T10:36:00.384Z,66.56
2022-10-18T10:39:20.337Z,66.51
2022-10-18T10:42:15.623Z,67.05
2022-10-18T10:45:05.938Z,66.91
2022-10-18T10:47:57.397Z,66.74
2022-10-18T10:50:56.990Z,67.20
2022-10-18T10:53:54.995Z,67.32
2022-10-18T10:57:05.748Z,67.10
2022-10-18T11:00:02.837Z,67.09
2022-10-18T11:03:31.446Z,67.08
2022-10-18T11:06:59.836Z,67.28
2022-10-18T11:09:52.905Z,67.28
2022-10-18T11:12:56.011Z,67.34
2022-10-18T11:15:49.601Z,67.53
2022-10-18T11:18:41.951Z,67.38
2022-10-18T11:21:33.980Z,67.54
2022-10-18T11:24:23.947Z,67.60
2022-10-18T11:27:28.814Z,67.46
2022-10-18T11:30:38.868Z,67.47
2022-10-18T11:34:07.739Z,67.63
2022-10-18T11:37:27.705Z,67.81
2022-10-18T11:40:35.003Z,67.91
2022-10-18T11:44:02.180Z,68.55
2022-10-18T11:47:16.205Z,68.18
2022-10-18T11:50:14.475Z,68.11
2022-10-18T11:53:25.690Z,68.09
2022-10-18T11:56:28.726Z,68.06
2022-10-18T11:59:40.851Z,68.73
2022-10-18T12:02:44.737Z,68.63
2022-10-18T12:05:38.785Z,69.00
2022-10-18T12:08:56.112Z,68.46
2022-10-18T12:11:55.764Z,68.40
2022-10-18T12:14:55.538Z,68.00
2022-10-18T12:17:50.050Z,68.05
2022-10-18T12:21:08.495Z,68.17
2022-10-18T12:24:24.961Z,68.14
2022-10-18T12:27:16.714Z,68.68
2022-10-18T12:31:01.216Z,69.05
2022-10-18T12:34:00.390Z,69.07
2022-10-18T12:37:18.885Z,69.11
2022-10-18T12:40:49.105Z,69.09
2022-10-18T12:43:39.037Z,69.13
2022-10-18T12:46:48.898Z,69.00
2022-10-18T12:49:42.678Z,68.88
2022-10-18T12:52:38.219Z,68.32
2022-10-18T12:55:28.015Z,67.57
2022-10-18T12:58:17.147Z,67.51
2022-10-18T13:01:09.232Z,67.38
2022-10-18T13:04:02.917Z,67.16
2022-10-18T13:07:01.821Z,67.06
2022-10-18T13:10:09.646Z,66.96
2022-10-18T13:13:38.270Z,66.96
2022-10-18T13:16:43.115Z,66.84
2022-10-18T13:20:20.541Z,66.85
2022-10-18T13:23:37.104Z,66.64
2022-10-18T13:26:43.571Z,66.83
2022-10-18T13:29:49.110Z,67.12
2022-10-18T13:33:01.261Z,66.84
2022-10-18T13:36:23.755Z,66.61
2022-10-18T13:39:23.276Z,66.52
2022-10-18T13:42:22.438Z,67.06
2022-10-18T13:45:33.445Z,66.35
2022-10-18T13:48:31.490Z,66.55
2022-10-18T13:51:28.857Z,66.57
2022-10-18T13:54:52.298Z,66.43
2022-10-18T13:57:50.662Z,66.83
2022-10-18T14:00:52.398Z,66.48
2022-10-18T14:03:56.723Z,66.54
2022-10-18T14:06:51.631Z,67.03
2022-10-18T14:09:54.170Z,66.90
2022-10-18T14:12:53.391Z,66.81
2022-10-18T14:15:45.898Z,67.18
2022-10-18T14:18:38.619Z,67.04
2022-10-18T14:21:35.883Z,67.11
2022-10-18T14:24:28.994Z,67.14
2022-10-18T14:27:30.110Z,67.14
2022-10-18T14:30:25.769Z,67.71
2022-10-18T14:34:01.457Z,68.11
2022-10-18T14:36:51.134Z,67.16
2022-10-18T14:39:40.580Z,67.65
2022-10-18T14:42:30.422Z,67.37
2022-10-18T14:45:23.203Z,67.49
2022-10-18T14:48:23.000Z,67.28
2022-10-18T14:51:15.944Z,66.73
2022-10-18T14:54:31.563Z,66.51
2022-10-18T14:57:27.408Z,66.51
2022-10-18T15:00:27.919Z,66.58
2022-10-18T15:03:19.030Z,66.46
2022-10-18T15:06:09.694Z,66.11
2022-10-18T15:09:02.784Z,66.16
2022-10-18T15:11:58.842Z,66.07
2022-10-18T15:14:49.304Z,65.97
2022-10-18T15:17:38.833Z,65.30
2022-10-18T15:20:33.037Z,65.34
2022-10-18T15:23:28.307Z,65.12
2022-10-18T15:26:28.525Z,65.44
2022-10-18T15:29:20.952Z,65.83
2022-10-18T15:32:23.471Z,66.22
2022-10-18T15:35:26.182Z,66.29
2022-10-18T15:38:18.288Z,65.89
2022-10-18T15:41:58.684Z,66.21
2022-10-18T15:44:52.495Z,65.95
2022-10-18T15:47:42.168Z,65.19
2022-10-18T15:50:48.436Z,65.02
2022-10-18T15:53:46.554Z,64.46
2022-10-18T15:56:37.650Z,64.53
2022-10-18T15:59:33.182Z,64.84
2022-10-18T16:02:23.125Z,64.96
2022-10-18T16:05:21.768Z,65.71
2022-10-18T16:08:31.834Z,66.41
2022-10-18T16:11:26.274Z,67.12
2022-10-18T16:14:15.877Z,68.13
2022-10-18T16:17:10.111Z,69.01
2022-10-18T16:20:00.339Z,69.59
2022-10-18T16:22:49.758Z,70.44
2022-10-18T16:25:40.514Z,70.73
2022-10-18T16:28:32.748Z,70.92
2022-10-18T16:31:24.298Z,71.32
2022-10-18T16:34:15.708Z,71.86
2022-10-18T16:37:04.824Z,71.85
2022-10-18T16:39:56.969Z,71.65
2022-10-18T16:42:46.578Z,71.47
2022-10-18T16:45:39.113Z,71.76
2022-10-18T16:48:28.609Z,72.28
2022-10-18T16:51:18.153Z,72.38
2022-10-18T16:54:07.849Z,72.33
2022-10-18T16:56:57.406Z,72.44
2022-10-18T16:59:49.924Z,72.41
2022-10-18T17:02:39.709Z,72.36
2022-10-18T17:05:32.545Z,72.06
2022-10-18T17:08:29.529Z,72.05
2022-10-18T17:11:19.429Z,71.51
2022-10-18T17:14:11.276Z,71.14
2022-10-18T17:17:01.094Z,71.42
2022-10-18T17:19:50.375Z,71.77
2022-10-18T17:22:39.461Z,71.60
2022-10-18T17:28:19.498Z,71.63
2022-10-18T17:31:09.362Z,71.41
2022-10-18T17:34:03.092Z,71.34
2022-10-18T17:36:52.951Z,71.26
2022-10-18T17:39:44.797Z,71.41
2022-10-18T17:42:38.221Z,70.82
2022-10-18T17:45:27.932Z,70.91
2022-10-18T17:48:17.305Z,71.13
2022-10-18T17:51:10.992Z,71.16
2022-10-18T17:54:00.765Z,71.03
2022-10-18T17:56:54.501Z,70.62
2022-10-18T17:59:48.566Z,71.04
2022-10-18T18:02:41.048Z,71.08
2022-10-18T18:05:35.652Z,71.67
2022-10-18T18:08:26.403Z,71.50
2022-10-18T18:11:17.435Z,71.75
2022-10-18T18:14:10.645Z,71.68
2022-10-18T18:17:02.529Z,71.90
2022-10-18T18:19:51.937Z,71.69
2022-10-18T18:22:42.923Z,72.32
2022-10-18T18:25:33.018Z,72.45
2022-10-18T18:28:24.870Z,73.43
2022-10-18T18:31:20.484Z,73.72
2022-10-18T18:34:11.753Z,74.70
2022-10-18T18:37:01.776Z,74.54
2022-10-18T18:39:52.474Z,74.76
2022-10-18T18:42:41.493Z,74.70
2022-10-18T18:45:31.574Z,75.49
2022-10-18T18:48:20.820Z,75.26
2022-10-18T18:51:14.635Z,74.75
2022-10-18T18:54:04.113Z,75.16
2022-10-18T18:56:53.593Z,75.58
2022-10-18T18:59:43.441Z,75.65
2022-10-18T19:02:32.740Z,75.03
2022-10-18T19:05:24.886Z,75.05
2022-10-18T19:08:14.097Z,74.42
2022-10-18T19:11:08.053Z,74.34
2022-10-18T19:13:58.634Z,74.38
2022-10-18T19:16:49.924Z,74.42
2022-10-18T19:19:41.728Z,74.61
2022-10-18T19:22:31.152Z,75.19
2022-10-18T19:25:23.439Z,75.41
2022-10-18T19:28:15.782Z,75.86
2022-10-18T19:31:04.783Z,75.61
2022-10-18T19:33:59.647Z,75.22
2022-10-18T19:36:50.671Z,75.92
2022-10-18T19:39:40.448Z,76.15
2022-10-18T19:42:31.414Z,76.26
2022-10-18T19:45:21.364Z,76.02
2022-10-18T19:48:13.508Z,75.93
2022-10-18T19:51:09.617Z,76.10
2022-10-18T19:54:00.164Z,76.11
2022-10-18T19:56:50.587Z,76.29
2022-10-18T20:02:30.486Z,76.50
2022-10-18T20:05:19.749Z,75.99
2022-10-18T20:08:09.167Z,76.81
2022-10-18T20:11:01.805Z,76.50
2022-10-18T20:13:53.059Z,76.59
2022-10-18T20:16:41.977Z,76.53
2022-10-18T20:19:31.044Z,76.56
2022-10-18T20:22:21.037Z,76.50
2022-10-18T20:25:10.801Z,76.59
2022-10-18T20:27:59.933Z,76.19
2022-10-18T20:30:50.106Z,76.36
2022-10-18T20:33:39.179Z,76.21
2022-10-18T20:36:29.697Z,75.73
2022-10-18T20:39:18.982Z,75.66
2022-10-18T20:42:08.445Z,76.14
2022-10-18T20:44:57.482Z,76.36
2022-10-18T20:47:48.349Z,75.78
2022-10-18T20:50:42.867Z,76.21
2022-10-18T20:53:34.795Z,75.93
2022-10-18T20:56:27.854Z,75.78
2022-10-18T20:59:18.016Z,75.91
2022-10-18T21:02:07.136Z,76.09
2022-10-18T21:04:56.776Z,75.82
2022-10-18T21:07:45.896Z,76.20
2022-10-18T21:10:35.826Z,76.01
2022-10-18T21:13:28.018Z,76.53
2022-10-18T21:16:17.535Z,75.91
2022-10-18T21:19:09.156Z,75.89
2022-10-18T21:22:01.689Z,76.08
2022-10-18T21:24:52.174Z,75.67
2022-10-18T21:27:42.603Z,75.63
2022-10-18T21:30:31.761Z,75.88
2022-10-18T21:33:21.200Z,75.87
2022-10-18T21:36:12.318Z,76.01
2022-10-18T21:39:03.133Z,76.39
2022-10-18T21:41:52.797Z,76.14
2022-10-18T21:44:42.339Z,76.71
2022-10-18T21:47:31.523Z,76.67
2022-10-18T21:50:21.464Z,76.53
2022-10-18T21:53:11.331Z,76.86
2022-10-18T21:56:15.031Z,76.97
2022-10-18T21:59:08.446Z,76.34
2022-10-18T22:01:58.671Z,76.71
2022-10-18T22:04:48.711Z,76.74
2022-10-18T22:07:38.360Z,76.37
2022-10-18T22:10:28.316Z,75.99
2022-10-18T22:13:18.492Z,75.66
2022-10-18T22:16:09.140Z,76.36
2022-10-18T22:19:01.016Z,76.25
2022-10-18T22:21:50.338Z,76.41
2022-10-18T22:24:39.751Z,77.00
2022-10-18T22:27:33.731Z,76.76
2022-10-18T22:30:23.517Z,76.25
2022-10-18T22:33:13.348Z,76.59
2022-10-18T22:36:03.314Z,76.31
2022-10-18T22:38:52.627Z,76.07
2022-10-18T22:41:42.984Z,76.08
2022-10-18T22:44:32.726Z,76.17
2022-10-18T22:47:23.280Z,75.84
2022-10-18T22:50:13.124Z,75.76
2022-10-18T22:53:02.301Z,75.98
2022-10-18T22:56:00.655Z,75.82
2022-10-18T22:59:00.635Z,76.15
2022-10-18T23:01:50.825Z,75.75
2022-10-18T23:04:40.428Z,76.38
2022-10-18T23:07:30.552Z,76.23
2022-10-18T23:10:19.883Z,76.09
2022-10-18T23:13:12.605Z,75.84
2022-10-18T23:16:05.042Z,76.50
2022-10-18T23:18:56.457Z,76.74
2022-10-18T23:21:45.764Z,76.24
2022-10-18T23:24:35.765Z,76.54
2022-10-18T23:27:25.192Z,76.53
2022-10-18T23:30:14.772Z,77.17
2022-10-18T23:33:04.374Z,76.97
2022-10-18T23:35:54.227Z,77.14
2022-10-18T23:38:44.778Z,76.41
2022-10-18T23:41:39.801Z,76.35
2022-10-18T23:44:31.857Z,75.78
2022-10-18T23:47:21.567Z,75.26
2022-10-18T23:50:11.923Z,75.44
2022-10-18T23:53:01.949Z,74.95
2022-10-18T23:56:00.622Z,74.86
2022-10-18T23:58:50.367Z,74.50
